This demonstration page uses our WeatherBlox Daily Observations layout. Learn more.

Left ArrowRight Arrow

36.19886, -115.1175

Hourly Observations for May 18, 2021

Temp ( °F °C ) Dew Point ( °F °C ) Humidity (%) Winds ( mph kmh ) Pressure ( in mb ) Visibility ( mi km ) Precip ( " mm )
12:53 am 00:53 Clear 80 26.7 37 2.8 21 21 NNW 9 15 29.77 1008 10 16.0934 N/A
5:53 am 05:53 Sunny 73 22.8 37 2.8 27 27 WNW 12 19 29.78 1009 10 16.0934 N/A
6:53 am 06:53 Sunny 75 23.9 38 3.3 26 26 VRB 3 6 29.8 1009 10 16.0934 N/A
7:53 am 07:53 Sunny 78 25.6 39 3.9 25 25 NNW 12 19 29.8 1009 10 16.0934 N/A
8:53 am 08:53 Sunny 85 29.4 38 3.3 19 19 N 12 19 29.79 1009 10 16.0934 N/A
9:53 am 09:53 Sunny 87 30.6 37 2.8 17 17 NNW 14 22 29.79 1009 10 16.0934 N/A
10:53 am 10:53 Sunny 90 32.2 37 2.8 15 15 NNW 15 24 29.77 1008 10 16.0934 N/A
11:53 am 11:53 Sunny 91 32.8 36 2.2 14 14 NW 12 19 29.76 1008 10 16.0934 N/A
12:53 pm 12:53 Sunny 93 33.9 35 1.7 13 13 NNW 8 13 29.73 1007 10 16.0934 N/A
1:53 pm 13:53 Sunny 95 35 32 undefined 11 11 undefined N/A 29.7 1006 10 16.0934 N/A
2:53 pm 14:53 Sunny 94 34.4 32 undefined 11 11 undefined N/A 29.68 1005 10 16.0934 N/A
3:53 pm 15:53 Sunny 97 36.1 30 -1.1 9 9 WNW 9 15 29.65 1004 10 16.0934 N/A
4:53 pm 16:53 Sunny 98 36.7 27 -2.8 8 8 VRB 5 7 29.63 1003 10 16.0934 N/A
5:53 pm 17:53 Sunny 98 36.7 27 -2.8 8 8 NNW 10 17 29.62 1003 10 16.0934 N/A
6:53 pm 18:53 Sunny 96 35.6 29 -1.7 9 9 SW 9 15 29.61 1003 10 16.0934 N/A
7:53 pm 19:53 Clear 93 33.9 30 -1.1 10 10 WSW 9 15 29.62 1003 10 16.0934 N/A
8:53 pm 20:53 Clear 92 33.3 28 -2.2 10 10 W 15 24 29.62 1003 10 16.0934 N/A
9:53 pm 21:53 Clear 90 32.2 29 -1.7 11 11 S 7 11 29.63 1003 10 16.0934 N/A
10:53 pm 22:53 Clear 87 30.6 29 -1.7 12 12 SSE 6 9 29.63 1003 10 16.0934 N/A
11:53 pm 23:53 Clear 86 30 29 -1.7 13 13 SW 13 20 29.62 1003 10 16.0934 N/A

Powered by AerisWeather